sensor_id;sensor_type;location;lat;lon;timestamp;pressure;altitude;pressure_sealevel;temperature;humidity
69223;BME280;56514;51.816;-0.026;2023-02-18T00:02:39;101666.97;;;13.56;77.78
69223;BME280;56514;51.816;-0.026;2023-02-18T00:05:44;101659.00;;;13.56;77.21
69223;BME280;56514;51.816;-0.026;2023-02-18T00:08:52;101658.59;;;13.50;77.95
69223;BME280;56514;51.816;-0.026;2023-02-18T00:12:01;101653.19;;;13.51;77.84
69223;BME280;56514;51.816;-0.026;2023-02-18T00:15:07;101644.56;;;13.48;77.73
69223;BME280;56514;51.816;-0.026;2023-02-18T00:18:14;101646.13;;;13.64;76.88
69223;BME280;56514;51.816;-0.026;2023-02-18T00:21:19;101649.31;;;13.69;76.41
69223;BME280;56514;51.816;-0.026;2023-02-18T00:24:29;101637.56;;;13.73;75.75
69223;BME280;56514;51.816;-0.026;2023-02-18T00:27:36;101643.63;;;13.75;75.49
69223;BME280;56514;51.816;-0.026;2023-02-18T00:30:45;101649.31;;;13.69;75.73
69223;BME280;56514;51.816;-0.026;2023-02-18T00:33:57;101634.03;;;13.73;75.13
69223;BME280;56514;51.816;-0.026;2023-02-18T00:37:08;101632.84;;;13.91;73.71
69223;BME280;56514;51.816;-0.026;2023-02-18T00:40:17;101633.56;;;13.93;73.41
69223;BME280;56514;51.816;-0.026;2023-02-18T00:43:27;101627.63;;;13.89;73.02
69223;BME280;56514;51.816;-0.026;2023-02-18T00:46:12;101621.03;;;13.82;73.35
69223;BME280;56514;51.816;-0.026;2023-02-18T00:48:57;101604.38;;;13.93;72.59
69223;BME280;56514;51.816;-0.026;2023-02-18T00:51:42;101609.56;;;13.82;72.65
69223;BME280;56514;51.816;-0.026;2023-02-18T00:54:27;101615.41;;;13.87;72.55
69223;BME280;56514;51.816;-0.026;2023-02-18T00:57:11;101618.81;;;13.89;72.12
69223;BME280;56514;51.816;-0.026;2023-02-18T00:59:56;101616.22;;;13.75;73.11
69223;BME280;56514;51.816;-0.026;2023-02-18T01:02:41;101614.25;;;13.91;71.90
69223;BME280;56514;51.816;-0.026;2023-02-18T01:05:26;101607.66;;;13.84;72.01
69223;BME280;56514;51.816;-0.026;2023-02-18T01:08:11;101595.56;;;13.80;72.38
69223;BME280;56514;51.816;-0.026;2023-02-18T01:10:57;101596.81;;;13.74;72.89
69223;BME280;56514;51.816;-0.026;2023-02-18T01:13:42;101608.53;;;13.58;73.58
69223;BME280;56514;51.816;-0.026;2023-02-18T01:16:27;101619.66;;;13.50;73.73
69223;BME280;56514;51.816;-0.026;2023-02-18T01:19:12;101611.59;;;13.52;73.54
69223;BME280;56514;51.816;-0.026;2023-02-18T01:21:56;101621.41;;;13.37;74.23
69223;BME280;56514;51.816;-0.026;2023-02-18T01:24:41;101603.59;;;13.39;74.53
69223;BME280;56514;51.816;-0.026;2023-02-18T01:27:26;101600.25;;;13.23;75.57
69223;BME280;56514;51.816;-0.026;2023-02-18T01:30:14;101609.16;;;13.22;75.68
69223;BME280;56514;51.816;-0.026;2023-02-18T01:33:00;101610.41;;;13.17;75.49
69223;BME280;56514;51.816;-0.026;2023-02-18T01:35:45;101606.25;;;13.13;75.47
69223;BME280;56514;51.816;-0.026;2023-02-18T01:38:30;101600.75;;;13.16;74.21
69223;BME280;56514;51.816;-0.026;2023-02-18T01:41:14;101601.72;;;13.15;73.85
69223;BME280;56514;51.816;-0.026;2023-02-18T01:44:16;101593.97;;;13.12;73.19
69223;BME280;56514;51.816;-0.026;2023-02-18T01:47:01;101600.56;;;13.19;72.75
69223;BME280;56514;51.816;-0.026;2023-02-18T01:49:50;101591.34;;;13.24;72.15
69223;BME280;56514;51.816;-0.026;2023-02-18T01:52:36;101588.09;;;13.33;71.28
69223;BME280;56514;51.816;-0.026;2023-02-18T01:55:21;101585.16;;;13.38;70.87
69223;BME280;56514;51.816;-0.026;2023-02-18T01:58:05;101579.31;;;13.33;71.04
69223;BME280;56514;51.816;-0.026;2023-02-18T02:00:50;101598.47;;;13.24;70.96
69223;BME280;56514;51.816;-0.026;2023-02-18T02:03:35;101600.72;;;13.30;70.15
69223;BME280;56514;51.816;-0.026;2023-02-18T02:06:21;101602.03;;;13.10;71.50
69223;BME280;56514;51.816;-0.026;2023-02-18T02:09:09;101600.38;;;13.22;70.50
69223;BME280;56514;51.816;-0.026;2023-02-18T02:33:08;101542.09;;;12.81;71.68
69223;BME280;56514;51.816;-0.026;2023-02-18T02:36:05;101536.22;;;12.76;71.46
69223;BME280;56514;51.816;-0.026;2023-02-18T02:52:22;101518.69;;;12.61;69.70
69223;BME280;56514;51.816;-0.026;2023-02-18T02:55:09;101522.44;;;12.57;70.14
69223;BME280;56514;51.816;-0.026;2023-02-18T02:57:57;101512.13;;;12.67;69.28
69223;BME280;56514;51.816;-0.026;2023-02-18T03:04:02;101500.66;;;12.54;69.25
69223;BME280;56514;51.816;-0.026;2023-02-18T03:13:38;101493.78;;;12.78;67.52
69223;BME280;56514;51.816;-0.026;2023-02-18T03:19:37;101498.06;;;12.66;67.94
69223;BME280;56514;51.816;-0.026;2023-02-18T03:22:30;101501.34;;;12.70;67.66
69223;BME280;56514;51.816;-0.026;2023-02-18T03:25:17;101495.66;;;12.76;67.40
69223;BME280;56514;51.816;-0.026;2023-02-18T03:28:11;101495.13;;;12.71;67.30
69223;BME280;56514;51.816;-0.026;2023-02-18T03:31:01;101492.38;;;12.72;67.50
69223;BME280;56514;51.816;-0.026;2023-02-18T03:34:01;101484.72;;;12.68;67.20
69223;BME280;56514;51.816;-0.026;2023-02-18T03:36:51;101475.84;;;12.69;66.58
69223;BME280;56514;51.816;-0.026;2023-02-18T03:39:39;101464.91;;;12.47;67.80
69223;BME280;56514;51.816;-0.026;2023-02-18T03:42:26;101463.09;;;12.61;66.78
69223;BME280;56514;51.816;-0.026;2023-02-18T03:45:11;101460.00;;;12.55;66.94
69223;BME280;56514;51.816;-0.026;2023-02-18T03:47:57;101454.78;;;12.53;66.95
69223;BME280;56514;51.816;-0.026;2023-02-18T03:50:41;101453.94;;;12.53;66.62
69223;BME280;56514;51.816;-0.026;2023-02-18T03:53:26;101456.56;;;12.53;66.35
69223;BME280;56514;51.816;-0.026;2023-02-18T03:56:11;101456.03;;;12.48;66.33
69223;BME280;56514;51.816;-0.026;2023-02-18T03:58:56;101460.78;;;12.43;66.72
69223;BME280;56514;51.816;-0.026;2023-02-18T04:01:42;101445.09;;;12.39;66.27
69223;BME280;56514;51.816;-0.026;2023-02-18T04:04:26;101452.84;;;12.43;65.89
69223;BME280;56514;51.816;-0.026;2023-02-18T04:07:11;101448.31;;;12.45;65.60
69223;BME280;56514;51.816;-0.026;2023-02-18T04:09:56;101456.72;;;12.37;65.77
69223;BME280;56514;51.816;-0.026;2023-02-18T04:12:41;101447.94;;;12.36;65.50
69223;BME280;56514;51.816;-0.026;2023-02-18T04:15:26;101442.19;;;12.30;65.80
69223;BME280;56514;51.816;-0.026;2023-02-18T04:18:11;101447.19;;;12.34;65.69
69223;BME280;56514;51.816;-0.026;2023-02-18T04:20:56;101431.59;;;12.30;65.10
69223;BME280;56514;51.816;-0.026;2023-02-18T04:23:41;101439.44;;;12.31;65.11
69223;BME280;56514;51.816;-0.026;2023-02-18T04:26:25;101429.44;;;12.22;65.47
69223;BME280;56514;51.816;-0.026;2023-02-18T04:29:10;101427.75;;;12.07;65.67
69223;BME280;56514;51.816;-0.026;2023-02-18T04:31:55;101430.59;;;12.04;65.62
69223;BME280;56514;51.816;-0.026;2023-02-18T04:34:40;101429.81;;;12.16;65.34
69223;BME280;56514;51.816;-0.026;2023-02-18T04:37:24;101431.63;;;12.16;64.89
69223;BME280;56514;51.816;-0.026;2023-02-18T04:40:10;101422.47;;;12.07;65.08
69223;BME280;56514;51.816;-0.026;2023-02-18T04:42:56;101415.41;;;12.08;65.08
69223;BME280;56514;51.816;-0.026;2023-02-18T04:45:41;101416.63;;;12.02;65.12
69223;BME280;56514;51.816;-0.026;2023-02-18T04:48:26;101430.41;;;12.07;65.17
69223;BME280;56514;51.816;-0.026;2023-02-18T04:51:11;101432.66;;;12.13;65.04
69223;BME280;56514;51.816;-0.026;2023-02-18T04:53:55;101430.22;;;12.10;65.22
69223;BME280;56514;51.816;-0.026;2023-02-18T04:56:40;101430.31;;;12.23;64.71
69223;BME280;56514;51.816;-0.026;2023-02-18T04:59:25;101423.25;;;12.36;64.41
69223;BME280;56514;51.816;-0.026;2023-02-18T05:02:10;101421.88;;;12.30;64.69
69223;BME280;56514;51.816;-0.026;2023-02-18T05:04:56;101406.16;;;12.42;64.25
69223;BME280;56514;51.816;-0.026;2023-02-18T05:07:41;101402.59;;;12.28;64.51
69223;BME280;56514;51.816;-0.026;2023-02-18T05:10:26;101404.22;;;12.17;65.20
69223;BME280;56514;51.816;-0.026;2023-02-18T05:13:11;101403.56;;;12.27;64.67
69223;BME280;56514;51.816;-0.026;2023-02-18T05:15:56;101398.47;;;12.10;65.54
69223;BME280;56514;51.816;-0.026;2023-02-18T05:18:40;101395.91;;;12.23;65.30
69223;BME280;56514;51.816;-0.026;2023-02-18T05:21:25;101402.41;;;12.17;65.52
69223;BME280;56514;51.816;-0.026;2023-02-18T05:24:10;101398.16;;;12.29;64.98
69223;BME280;56514;51.816;-0.026;2023-02-18T05:26:55;101403.09;;;12.21;65.40
69223;BME280;56514;51.816;-0.026;2023-02-18T05:29:40;101411.50;;;12.13;65.91
69223;BME280;56514;51.816;-0.026;2023-02-18T05:32:25;101406.00;;;12.30;65.74
69223;BME280;56514;51.816;-0.026;2023-02-18T05:35:10;101406.28;;;12.26;66.06
69223;BME280;56514;51.816;-0.026;2023-02-18T05:37:55;101408.66;;;12.16;66.54
69223;BME280;56514;51.816;-0.026;2023-02-18T05:40:40;101404.75;;;12.36;66.39
69223;BME280;56514;51.816;-0.026;2023-02-18T05:43:25;101395.09;;;12.49;66.02
69223;BME280;56514;51.816;-0.026;2023-02-18T05:46:10;101380.38;;;12.58;65.75
69223;BME280;56514;51.816;-0.026;2023-02-18T05:48:55;101385.13;;;12.53;66.37
69223;BME280;56514;51.816;-0.026;2023-02-18T05:51:40;101379.22;;;12.62;66.28
69223;BME280;56514;51.816;-0.026;2023-02-18T05:54:26;101372.13;;;12.62;66.45
69223;BME280;56514;51.816;-0.026;2023-02-18T05:57:13;101374.69;;;12.64;66.87
69223;BME280;56514;51.816;-0.026;2023-02-18T05:59:58;101389.19;;;12.58;67.56
69223;BME280;56514;51.816;-0.026;2023-02-18T06:02:43;101394.44;;;12.85;66.94
69223;BME280;56514;51.816;-0.026;2023-02-18T06:05:28;101369.44;;;12.76;67.25
69223;BME280;56514;51.816;-0.026;2023-02-18T06:08:13;101359.28;;;12.95;66.70
69223;BME280;56514;51.816;-0.026;2023-02-18T06:10:59;101365.97;;;12.88;67.18
69223;BME280;56514;51.816;-0.026;2023-02-18T06:13:44;101364.91;;;12.91;67.41
69223;BME280;56514;51.816;-0.026;2023-02-18T06:16:29;101360.66;;;12.88;67.54
69223;BME280;56514;51.816;-0.026;2023-02-18T06:19:14;101360.97;;;12.84;67.79
69223;BME280;56514;51.816;-0.026;2023-02-18T06:21:59;101351.34;;;12.95;67.38
69223;BME280;56514;51.816;-0.026;2023-02-18T06:24:44;101360.16;;;12.96;67.82
69223;BME280;56514;51.816;-0.026;2023-02-18T06:27:29;101362.78;;;12.96;67.86
69223;BME280;56514;51.816;-0.026;2023-02-18T06:30:13;101375.81;;;12.99;68.07
69223;BME280;56514;51.816;-0.026;2023-02-18T06:32:58;101370.94;;;12.93;68.27
69223;BME280;56514;51.816;-0.026;2023-02-18T06:35:58;101373.56;;;13.07;68.06
69223;BME280;56514;51.816;-0.026;2023-02-18T06:38:44;101368.16;;;13.21;67.61
69223;BME280;56514;51.816;-0.026;2023-02-18T06:41:29;101368.38;;;13.18;67.58
69223;BME280;56514;51.816;-0.026;2023-02-18T06:44:14;101381.63;;;13.18;67.70
69223;BME280;56514;51.816;-0.026;2023-02-18T06:47:01;101380.25;;;12.98;68.52
69223;BME280;56514;51.816;-0.026;2023-02-18T06:49:45;101375.03;;;13.23;67.94
69223;BME280;56514;51.816;-0.026;2023-02-18T06:52:30;101377.03;;;13.20;67.79
69223;BME280;56514;51.816;-0.026;2023-02-18T06:55:17;101388.50;;;13.20;67.76
69223;BME280;56514;51.816;-0.026;2023-02-18T06:58:02;101388.09;;;13.26;67.58
69223;BME280;56514;51.816;-0.026;2023-02-18T07:00:49;101389.16;;;13.24;67.59
69223;BME280;56514;51.816;-0.026;2023-02-18T07:03:34;101382.13;;;13.23;67.94
69223;BME280;56514;51.816;-0.026;2023-02-18T07:06:19;101385.00;;;13.20;67.99
69223;BME280;56514;51.816;-0.026;2023-02-18T07:09:04;101387.13;;;13.27;67.81
69223;BME280;56514;51.816;-0.026;2023-02-18T07:11:49;101387.44;;;13.23;67.98
69223;BME280;56514;51.816;-0.026;2023-02-18T07:14:34;101384.69;;;13.37;67.59
69223;BME280;56514;51.816;-0.026;2023-02-18T07:17:18;101380.16;;;13.39;67.51
69223;BME280;56514;51.816;-0.026;2023-02-18T07:20:05;101378.84;;;13.32;67.76
69223;BME280;56514;51.816;-0.026;2023-02-18T07:22:50;101391.16;;;13.33;67.77
69223;BME280;56514;51.816;-0.026;2023-02-18T07:25:34;101383.31;;;13.31;67.91
69223;BME280;56514;51.816;-0.026;2023-02-18T07:28:19;101370.91;;;13.32;67.85
69223;BME280;56514;51.816;-0.026;2023-02-18T07:31:04;101367.63;;;13.28;68.04
69223;BME280;56514;51.816;-0.026;2023-02-18T07:33:50;101372.31;;;13.37;67.80
69223;BME280;56514;51.816;-0.026;2023-02-18T07:36:35;101378.13;;;13.30;68.07
69223;BME280;56514;51.816;-0.026;2023-02-18T07:39:21;101385.44;;;13.26;68.52
69223;BME280;56514;51.816;-0.026;2023-02-18T07:42:07;101377.91;;;13.33;68.38
69223;BME280;56514;51.816;-0.026;2023-02-18T07:44:52;101402.38;;;13.36;68.23
69223;BME280;56514;51.816;-0.026;2023-02-18T07:47:36;101404.72;;;13.28;68.63
69223;BME280;56514;51.816;-0.026;2023-02-18T07:50:21;101406.53;;;13.28;68.51
69223;BME280;56514;51.816;-0.026;2023-02-18T07:53:06;101407.91;;;13.46;68.31
69223;BME280;56514;51.816;-0.026;2023-02-18T07:55:51;101393.06;;;13.43;68.17
69223;BME280;56514;51.816;-0.026;2023-02-18T07:58:37;101403.25;;;13.49;68.29
69223;BME280;56514;51.816;-0.026;2023-02-18T08:01:22;101395.84;;;13.42;68.30
69223;BME280;56514;51.816;-0.026;2023-02-18T08:04:07;101412.34;;;13.58;68.36
69223;BME280;56514;51.816;-0.026;2023-02-18T08:06:52;101411.63;;;13.43;68.42
69223;BME280;56514;51.816;-0.026;2023-02-18T08:09:37;101417.25;;;13.51;68.45
69223;BME280;56514;51.816;-0.026;2023-02-18T08:12:21;101417.59;;;13.47;68.66
69223;BME280;56514;51.816;-0.026;2023-02-18T08:15:07;101429.44;;;13.41;68.98
69223;BME280;56514;51.816;-0.026;2023-02-18T08:17:52;101417.03;;;13.42;69.16
69223;BME280;56514;51.816;-0.026;2023-02-18T08:20:37;101420.00;;;13.37;69.01
69223;BME280;56514;51.816;-0.026;2023-02-18T08:23:22;101429.44;;;13.41;69.02
69223;BME280;56514;51.816;-0.026;2023-02-18T08:26:10;101441.22;;;13.50;68.83
69223;BME280;56514;51.816;-0.026;2023-02-18T08:28:55;101442.47;;;13.44;69.18
69223;BME280;56514;51.816;-0.026;2023-02-18T08:31:40;101440.47;;;13.48;68.85
69223;BME280;56514;51.816;-0.026;2023-02-18T08:34:25;101449.19;;;13.50;69.06
69223;BME280;56514;51.816;-0.026;2023-02-18T08:37:10;101439.72;;;13.46;69.41
69223;BME280;56514;51.816;-0.026;2023-02-18T08:39:55;101457.03;;;13.51;69.20
69223;BME280;56514;51.816;-0.026;2023-02-18T08:42:39;101465.38;;;13.58;69.02
69223;BME280;56514;51.816;-0.026;2023-02-18T08:45:24;101464.00;;;13.52;69.28
69223;BME280;56514;51.816;-0.026;2023-02-18T08:48:11;101459.88;;;13.48;69.55
69223;BME280;56514;51.816;-0.026;2023-02-18T08:50:58;101459.44;;;13.67;69.01
69223;BME280;56514;51.816;-0.026;2023-02-18T08:53:43;101457.63;;;13.55;69.29
69223;BME280;56514;51.816;-0.026;2023-02-18T08:56:30;101459.44;;;13.67;69.25
69223;BME280;56514;51.816;-0.026;2023-02-18T08:59:16;101458.50;;;13.68;69.30
69223;BME280;56514;51.816;-0.026;2023-02-18T09:02:01;101471.97;;;13.77;68.95
69223;BME280;56514;51.816;-0.026;2023-02-18T09:04:47;101461.13;;;13.80;69.21
69223;BME280;56514;51.816;-0.026;2023-02-18T09:07:32;101459.22;;;13.95;68.71
69223;BME280;56514;51.816;-0.026;2023-02-18T09:10:17;101468.66;;;14.11;67.57
69223;BME280;56514;51.816;-0.026;2023-02-18T09:13:02;101466.88;;;13.99;68.37
69223;BME280;56514;51.816;-0.026;2023-02-18T09:15:57;101466.44;;;13.93;68.77
69223;BME280;56514;51.816;-0.026;2023-02-18T09:18:42;101493.63;;;13.96;68.50
69223;BME280;56514;51.816;-0.026;2023-02-18T09:21:27;101491.06;;;13.95;68.37
69223;BME280;56514;51.816;-0.026;2023-02-18T09:24:11;101494.16;;;13.89;68.50
69223;BME280;56514;51.816;-0.026;2023-02-18T09:26:56;101486.09;;;13.90;68.80
69223;BME280;56514;51.816;-0.026;2023-02-18T09:29:41;101479.53;;;13.83;69.11
69223;BME280;56514;51.816;-0.026;2023-02-18T09:32:26;101488.50;;;13.81;69.33
69223;BME280;56514;51.816;-0.026;2023-02-18T09:35:10;101491.06;;;13.82;69.18
69223;BME280;56514;51.816;-0.026;2023-02-18T09:37:55;101487.47;;;13.83;69.29
69223;BME280;56514;51.816;-0.026;2023-02-18T09:40:48;101492.13;;;13.80;69.40
69223;BME280;56514;51.816;-0.026;2023-02-18T09:43:46;101487.25;;;13.86;69.11
69223;BME280;56514;51.816;-0.026;2023-02-18T09:46:35;101487.25;;;13.86;69.09
69223;BME280;56514;51.816;-0.026;2023-02-18T09:49:29;101493.19;;;14.15;68.19
69223;BME280;56514;51.816;-0.026;2023-02-18T09:52:27;101483.38;;;14.15;68.14
69223;BME280;56514;51.816;-0.026;2023-02-18T09:55:17;101485.53;;;14.23;68.37
69223;BME280;56514;51.816;-0.026;2023-02-18T10:01:27;101504.69;;;14.64;66.77
69223;BME280;56514;51.816;-0.026;2023-02-18T10:04:17;101511.38;;;14.57;67.09
69223;BME280;56514;51.816;-0.026;2023-02-18T10:07:03;101506.50;;;14.51;67.37
69223;BME280;56514;51.816;-0.026;2023-02-18T10:09:53;101517.03;;;14.53;67.44
69223;BME280;56514;51.816;-0.026;2023-02-18T10:12:38;101499.06;;;14.56;67.49
69223;BME280;56514;51.816;-0.026;2023-02-18T10:15:27;101506.03;;;14.70;66.58
69223;BME280;56514;51.816;-0.026;2023-02-18T10:18:21;101513.66;;;14.74;66.43
69223;BME280;56514;51.816;-0.026;2023-02-18T10:21:11;101513.25;;;14.68;66.89
69223;BME280;56514;51.816;-0.026;2023-02-18T10:24:00;101516.63;;;14.82;66.36
69223;BME280;56514;51.816;-0.026;2023-02-18T10:26:46;101530.03;;;14.81;66.46
69223;BME280;56514;51.816;-0.026;2023-02-18T10:29:32;101528.19;;;14.81;66.21
69223;BME280;56514;51.816;-0.026;2023-02-18T10:32:25;101533.56;;;14.69;66.60
69223;BME280;56514;51.816;-0.026;2023-02-18T10:35:45;101523.63;;;14.83;66.28
69223;BME280;56514;51.816;-0.026;2023-02-18T10:38:30;101524.69;;;15.04;66.28
69223;BME280;56514;51.816;-0.026;2023-02-18T10:47:23;101537.84;;;15.42;64.36
69223;BME280;56514;51.816;-0.026;2023-02-18T10:50:34;101535.72;;;15.34;64.51
69223;BME280;56514;51.816;-0.026;2023-02-18T10:53:32;101532.09;;;15.35;64.09
69223;BME280;56514;51.816;-0.026;2023-02-18T10:59:31;101519.00;;;15.21;64.82
69223;BME280;56514;51.816;-0.026;2023-02-18T11:02:17;101519.22;;;15.18;64.63
69223;BME280;56514;51.816;-0.026;2023-02-18T11:05:17;101524.75;;;15.15;65.13
69223;BME280;56514;51.816;-0.026;2023-02-18T11:08:07;101526.84;;;15.23;64.75
69223;BME280;56514;51.816;-0.026;2023-02-18T11:10:54;101520.84;;;15.32;64.96
69223;BME280;56514;51.816;-0.026;2023-02-18T11:13:40;101526.28;;;15.54;63.65
69223;BME280;56514;51.816;-0.026;2023-02-18T11:16:42;101524.72;;;15.62;62.86
69223;BME280;56514;51.816;-0.026;2023-02-18T11:19:36;101520.50;;;15.60;63.07
69223;BME280;56514;51.816;-0.026;2023-02-18T11:22:29;101528.31;;;15.96;62.60
69223;BME280;56514;51.816;-0.026;2023-02-18T11:25:23;101534.88;;;16.25;60.77
69223;BME280;56514;51.816;-0.026;2023-02-18T11:28:24;101534.88;;;16.25;59.85
69223;BME280;56514;51.816;-0.026;2023-02-18T11:31:16;101538.84;;;16.09;60.61
69223;BME280;56514;51.816;-0.026;2023-02-18T11:34:03;101528.44;;;16.06;61.00
69223;BME280;56514;51.816;-0.026;2023-02-18T11:36:52;101551.81;;;16.13;60.04
69223;BME280;56514;51.816;-0.026;2023-02-18T11:39:43;101534.97;;;16.02;60.74
69223;BME280;56514;51.816;-0.026;2023-02-18T11:42:30;101544.19;;;16.31;59.60
69223;BME280;56514;51.816;-0.026;2023-02-18T11:45:30;101519.28;;;16.32;60.80
69223;BME280;56514;51.816;-0.026;2023-02-18T11:48:18;101520.94;;;16.77;58.70
69223;BME280;56514;51.816;-0.026;2023-02-18T11:51:30;101514.97;;;16.84;58.53
69223;BME280;56514;51.816;-0.026;2023-02-18T11:54:26;101514.94;;;17.06;57.06
69223;BME280;56514;51.816;-0.026;2023-02-18T11:57:21;101518.09;;;17.32;56.28
69223;BME280;56514;51.816;-0.026;2023-02-18T12:00:45;101509.97;;;17.33;55.94
69223;BME280;56514;51.816;-0.026;2023-02-18T12:03:59;101515.00;;;17.16;56.57
69223;BME280;56514;51.816;-0.026;2023-02-18T12:09:37;101506.97;;;16.95;57.42
69223;BME280;56514;51.816;-0.026;2023-02-18T12:12:47;101508.88;;;17.04;56.91
69223;BME280;56514;51.816;-0.026;2023-02-18T12:15:47;101510.44;;;16.96;57.54
69223;BME280;56514;51.816;-0.026;2023-02-18T12:30:56;101509.81;;;17.87;55.07
69223;BME280;56514;51.816;-0.026;2023-02-18T12:56:25;101479.22;;;16.87;56.90
69223;BME280;56514;51.816;-0.026;2023-02-18T13:05:58;101477.03;;;16.92;57.76
69223;BME280;56514;51.816;-0.026;2023-02-18T13:12:27;101477.22;;;17.11;56.73
69223;BME280;56514;51.816;-0.026;2023-02-18T13:15:18;101469.16;;;16.90;56.66
69223;BME280;56514;51.816;-0.026;2023-02-18T13:18:20;101475.06;;;16.62;58.19
69223;BME280;56514;51.816;-0.026;2023-02-18T13:21:11;101472.97;;;16.77;57.31
69223;BME280;56514;51.816;-0.026;2023-02-18T13:24:10;101464.50;;;16.72;58.05
69223;BME280;56514;51.816;-0.026;2023-02-18T13:27:05;101471.72;;;16.81;57.29
69223;BME280;56514;51.816;-0.026;2023-02-18T13:39:17;101449.16;;;16.96;56.77
69223;BME280;56514;51.816;-0.026;2023-02-18T13:45:35;101449.38;;;17.56;54.53
69223;BME280;56514;51.816;-0.026;2023-02-18T13:48:27;101443.38;;;17.43;55.26
69223;BME280;56514;51.816;-0.026;2023-02-18T13:51:27;101438.75;;;17.45;54.58
69223;BME280;56514;51.816;-0.026;2023-02-18T13:57:25;101436.50;;;17.71;54.52
69223;BME280;56514;51.816;-0.026;2023-02-18T14:00:22;101420.03;;;17.86;54.33
69223;BME280;56514;51.816;-0.026;2023-02-18T14:06:20;101429.47;;;17.90;52.90
69223;BME280;56514;51.816;-0.026;2023-02-18T14:20:51;101408.28;;;17.98;51.99
69223;BME280;56514;51.816;-0.026;2023-02-18T14:26:45;101393.94;;;17.69;53.88
69223;BME280;56514;51.816;-0.026;2023-02-18T14:29:30;101384.91;;;17.81;52.99
69223;BME280;56514;51.816;-0.026;2023-02-18T14:32:16;101391.41;;;17.68;53.19
69223;BME280;56514;51.816;-0.026;2023-02-18T14:41:17;101379.16;;;17.35;53.68
69223;BME280;56514;51.816;-0.026;2023-02-18T14:50:18;101385.50;;;17.02;54.96
69223;BME280;56514;51.816;-0.026;2023-02-18T14:53:12;101383.75;;;16.92;55.25
69223;BME280;56514;51.816;-0.026;2023-02-18T14:56:03;101386.38;;;17.03;55.37
69223;BME280;56514;51.816;-0.026;2023-02-18T14:58:59;101381.41;;;17.19;54.42
69223;BME280;56514;51.816;-0.026;2023-02-18T15:01:46;101390.88;;;17.23;54.55
69223;BME280;56514;51.816;-0.026;2023-02-18T15:04:31;101391.06;;;17.10;54.71
69223;BME280;56514;51.816;-0.026;2023-02-18T15:07:19;101394.19;;;17.15;54.82
69223;BME280;56514;51.816;-0.026;2023-02-18T15:10:10;101384.09;;;17.19;54.91
69223;BME280;56514;51.816;-0.026;2023-02-18T15:12:56;101392.09;;;17.39;54.12
69223;BME280;56514;51.816;-0.026;2023-02-18T15:15:42;101370.59;;;17.52;53.59
69223;BME280;56514;51.816;-0.026;2023-02-18T15:18:33;101381.13;;;17.54;52.84
69223;BME280;56514;51.816;-0.026;2023-02-18T15:21:32;101380.59;;;17.18;53.73
69223;BME280;56514;51.816;-0.026;2023-02-18T15:24:39;101385.84;;;17.09;53.94
69223;BME280;56514;51.816;-0.026;2023-02-18T15:27:29;101373.22;;;16.90;54.47
69223;BME280;56514;51.816;-0.026;2023-02-18T15:30:24;101373.00;;;16.62;55.80
69223;BME280;56514;51.816;-0.026;2023-02-18T15:33:11;101366.47;;;16.55;56.58
69223;BME280;56514;51.816;-0.026;2023-02-18T15:36:03;101363.09;;;16.53;56.35
69223;BME280;56514;51.816;-0.026;2023-02-18T15:38:50;101360.56;;;16.51;55.74
69223;BME280;56514;51.816;-0.026;2023-02-18T15:41:38;101360.94;;;16.36;56.58
69223;BME280;56514;51.816;-0.026;2023-02-18T15:44:26;101355.38;;;16.28;57.15
69223;BME280;56514;51.816;-0.026;2023-02-18T15:47:12;101362.19;;;16.21;57.13
69223;BME280;56514;51.816;-0.026;2023-02-18T15:50:00;101359.28;;;16.13;57.33
69223;BME280;56514;51.816;-0.026;2023-02-18T15:52:46;101344.31;;;16.12;57.07
69223;BME280;56514;51.816;-0.026;2023-02-18T15:55:35;101361.25;;;16.00;57.44
69223;BME280;56514;51.816;-0.026;2023-02-18T15:58:26;101354.75;;;15.82;58.18
69223;BME280;56514;51.816;-0.026;2023-02-18T16:01:27;101357.38;;;15.93;57.67
69223;BME280;56514;51.816;-0.026;2023-02-18T16:04:14;101361.28;;;15.89;57.76
69223;BME280;56514;51.816;-0.026;2023-02-18T16:07:04;101366.09;;;15.72;57.96
69223;BME280;56514;51.816;-0.026;2023-02-18T16:10:34;101362.00;;;15.57;58.39
69223;BME280;56514;51.816;-0.026;2023-02-18T16:13:24;101363.34;;;15.63;58.43
69223;BME280;56514;51.816;-0.026;2023-02-18T16:16:35;101366.09;;;15.50;58.78
69223;BME280;56514;51.816;-0.026;2023-02-18T16:19:23;101359.00;;;15.51;58.40
69223;BME280;56514;51.816;-0.026;2023-02-18T16:25:35;101383.03;;;15.38;59.11
69223;BME280;56514;51.816;-0.026;2023-02-18T16:28:25;101384.84;;;15.49;58.39
69223;BME280;56514;51.816;-0.026;2023-02-18T16:31:15;101405.31;;;15.36;58.74
69223;BME280;56514;51.816;-0.026;2023-02-18T16:34:00;101392.84;;;15.25;58.86
69223;BME280;56514;51.816;-0.026;2023-02-18T16:36:46;101389.56;;;15.11;59.91
69223;BME280;56514;51.816;-0.026;2023-02-18T16:39:50;101379.91;;;15.21;59.37
69223;BME280;56514;51.816;-0.026;2023-02-18T16:42:38;101382.41;;;15.00;59.75
69223;BME280;56514;51.816;-0.026;2023-02-18T16:45:51;101378.16;;;14.98;59.73
69223;BME280;56514;51.816;-0.026;2023-02-18T16:48:38;101360.41;;;14.98;60.13
69223;BME280;56514;51.816;-0.026;2023-02-18T16:54:10;101374.16;;;14.92;59.84
69223;BME280;56514;51.816;-0.026;2023-02-18T16:56:55;101360.84;;;14.81;59.95
69223;BME280;56514;51.816;-0.026;2023-02-18T16:59:40;101374.81;;;14.72;60.02
69223;BME280;56514;51.816;-0.026;2023-02-18T17:02:26;101382.41;;;14.66;60.55
69223;BME280;56514;51.816;-0.026;2023-02-18T17:05:19;101390.16;;;14.69;60.21
69223;BME280;56514;51.816;-0.026;2023-02-18T17:08:17;101397.78;;;14.73;59.85
69223;BME280;56514;51.816;-0.026;2023-02-18T17:11:04;101394.59;;;14.68;59.83
69223;BME280;56514;51.816;-0.026;2023-02-18T17:13:49;101397.66;;;14.75;59.32
69223;BME280;56514;51.816;-0.026;2023-02-18T17:16:34;101397.31;;;14.79;59.31